createdAt,value
2019-02-28T00:00:06.609Z,1.34
2019-02-28T00:02:39.684Z,1.36
2019-02-28T00:05:11.584Z,1.33
2019-02-28T00:07:43.480Z,1.35
2019-02-28T00:10:15.646Z,1.35
2019-02-28T00:12:48.032Z,1.33
2019-02-28T00:15:21.534Z,1.30
2019-02-28T00:17:53.273Z,1.23
2019-02-28T00:20:25.178Z,1.16
2019-02-28T00:22:56.999Z,1.20
2019-02-28T00:25:28.768Z,1.21
2019-02-28T00:28:00.617Z,1.25
2019-02-28T00:30:32.527Z,1.18
2019-02-28T00:33:04.601Z,1.18
2019-02-28T00:35:36.386Z,1.22
2019-02-28T00:38:09.194Z,1.28
2019-02-28T00:40:41.043Z,1.30
2019-02-28T00:43:12.950Z,1.25
2019-02-28T00:45:45.152Z,1.18
2019-02-28T00:48:18.242Z,1.23
2019-02-28T00:50:50.506Z,1.09
2019-02-28T00:53:22.661Z,1.18
2019-02-28T00:55:54.567Z,1.25
2019-02-28T00:58:28.857Z,1.21
2019-02-28T01:01:08.447Z,1.20
2019-02-28T01:03:39.691Z,1.30
2019-02-28T01:06:11.873Z,1.25
2019-02-28T01:08:43.711Z,1.32
2019-02-28T01:11:15.552Z,1.29
2019-02-28T01:13:47.575Z,1.16
2019-02-28T01:16:20.124Z,0.88
2019-02-28T01:18:51.855Z,1.01
2019-02-28T01:21:24.517Z,1.02
2019-02-28T01:23:56.369Z,1.03
2019-02-28T01:26:30.460Z,0.93
2019-02-28T01:29:02.775Z,0.73
2019-02-28T01:31:34.528Z,0.84
2019-02-28T01:34:06.436Z,0.86
2019-02-28T01:36:38.286Z,1.00
2019-02-28T01:39:11.609Z,1.00
2019-02-28T01:41:45.196Z,1.01
2019-02-28T01:44:17.622Z,1.03
2019-02-28T01:46:49.716Z,0.83
2019-02-28T01:49:21.562Z,0.71
2019-02-28T01:51:53.328Z,0.51
2019-02-28T01:54:27.539Z,0.52
2019-02-28T01:56:59.515Z,0.36
2019-02-28T01:59:32.396Z,0.35
2019-02-28T02:02:06.752Z,0.24
2019-02-28T02:04:37.875Z,0.36
2019-02-28T02:07:09.785Z,0.34
2019-02-28T02:09:42.666Z,0.38
2019-02-28T02:12:15.319Z,0.49
2019-02-28T02:14:47.163Z,0.63
2019-02-28T02:17:19.317Z,0.61
2019-02-28T02:19:52.165Z,0.64
2019-02-28T02:22:24.599Z,0.66
2019-02-28T02:24:59.346Z,0.73
2019-02-28T02:27:29.982Z,0.65
2019-02-28T02:30:02.076Z,0.63
2019-02-28T02:32:38.695Z,0.62
2019-02-28T02:35:08.539Z,0.68
2019-02-28T02:37:40.527Z,0.63
2019-02-28T02:40:12.913Z,0.58
2019-02-28T02:42:48.494Z,0.59
2019-02-28T02:45:18.458Z,0.62
2019-02-28T02:47:50.217Z,0.61
2019-02-28T02:50:22.046Z,0.57
2019-02-28T02:52:54.127Z,0.53
2019-02-28T02:55:28.945Z,0.40
2019-02-28T02:57:59.353Z,0.29
2019-02-28T03:00:31.242Z,0.20
2019-02-28T03:03:06.080Z,0.21
2019-02-28T03:05:36.893Z,0.00
2019-02-28T03:08:08.637Z,-0.04
2019-02-28T03:10:40.358Z,0.01
2019-02-28T03:13:13.227Z,0.00
2019-02-28T03:15:45.062Z,-0.18
2019-02-28T03:18:20.539Z,0.03
2019-02-28T03:20:50.482Z,-0.02
2019-02-28T03:23:22.310Z,-0.06
2019-02-28T03:25:54.046Z,-0.09
2019-02-28T03:28:28.138Z,-0.05
2019-02-28T03:31:12.177Z,-0.08
2019-02-28T03:33:33.257Z,-0.13
2019-02-28T03:36:05.081Z,-0.18
2019-02-28T03:38:37.406Z,-0.21
2019-02-28T03:41:16.038Z,-0.26
2019-02-28T03:43:43.992Z,-0.32
2019-02-28T03:46:15.996Z,-0.32
2019-02-28T03:48:47.782Z,-0.36
2019-02-28T03:51:19.506Z,-0.45
2019-02-28T03:53:55.654Z,-0.38
2019-02-28T03:56:24.973Z,-0.29
2019-02-28T03:58:56.798Z,-0.23
2019-02-28T04:01:28.611Z,-0.22
2019-02-28T04:04:00.511Z,-0.29
2019-02-28T04:06:39.090Z,-0.25
2019-02-28T04:09:09.015Z,-0.26
2019-02-28T04:11:40.866Z,-0.32
2019-02-28T04:14:12.695Z,-0.36
2019-02-28T04:16:44.436Z,-0.30
2019-02-28T04:19:21.334Z,-0.35
2019-02-28T04:21:49.682Z,-0.32
2019-02-28T04:24:21.444Z,-0.28
2019-02-28T04:26:53.180Z,-0.34
2019-02-28T04:29:30.053Z,-0.50
2019-02-28T04:31:58.383Z,-0.49
2019-02-28T04:34:30.125Z,-0.45
2019-02-28T04:37:01.868Z,-0.39
2019-02-28T04:39:33.607Z,-0.46
2019-02-28T04:42:06.118Z,-0.42
2019-02-28T04:44:37.832Z,-0.46
2019-02-28T04:47:09.581Z,-0.45
2019-02-28T04:49:41.346Z,-0.46
2019-02-28T04:52:13.138Z,-0.45
2019-02-28T04:54:44.950Z,-0.45
2019-02-28T04:57:17.360Z,-0.44
2019-02-28T04:59:50.129Z,-0.54
2019-02-28T05:02:21.868Z,-0.54
2019-02-28T05:04:53.685Z,-0.49
2019-02-28T05:07:26.357Z,-0.38
2019-02-28T05:09:59.889Z,-0.35
2019-02-28T05:12:31.656Z,-0.45
2019-02-28T05:15:03.417Z,-0.44
2019-02-28T05:17:36.663Z,-0.42
2019-02-28T05:20:10.815Z,-0.38
2019-02-28T05:22:42.650Z,-0.35
2019-02-28T05:25:17.314Z,-0.42
2019-02-28T05:27:48.067Z,-0.42
2019-02-28T05:30:20.023Z,-0.64
2019-02-28T05:32:52.020Z,-0.47
2019-02-28T05:35:26.576Z,-0.44
2019-02-28T05:37:57.526Z,-0.32
2019-02-28T05:40:29.532Z,-0.33
2019-02-28T05:43:01.270Z,-0.42
2019-02-28T05:45:33.011Z,-0.52
2019-02-28T05:48:04.873Z,-0.50
2019-02-28T05:50:36.694Z,-0.50
2019-02-28T05:53:10.555Z,-0.53
2019-02-28T05:55:42.065Z,-0.51
2019-02-28T05:58:17.509Z,-0.44
2019-02-28T06:00:47.442Z,-0.48
2019-02-28T06:03:19.758Z,-0.46
2019-02-28T06:05:51.518Z,-0.44
2019-02-28T06:08:23.682Z,-0.45
2019-02-28T06:10:59.091Z,-0.45
2019-02-28T06:13:29.387Z,-0.49
2019-02-28T06:16:01.155Z,-0.58
2019-02-28T06:18:33.572Z,-0.56
2019-02-28T06:21:05.488Z,-0.69
2019-02-28T06:23:40.810Z,-0.62
2019-02-28T06:26:11.847Z,-0.48
2019-02-28T06:28:43.986Z,-0.51
2019-02-28T06:31:15.859Z,-0.35
2019-02-28T06:33:47.844Z,-0.33
2019-02-28T06:36:19.835Z,-0.49
2019-02-28T06:41:07.498Z,-0.12
2019-02-28T06:42:05.988Z,-0.05
2019-02-28T06:44:37.763Z,0.12
2019-02-28T06:47:11.280Z,0.14
2019-02-28T06:49:43.472Z,0.31
2019-02-28T06:52:15.387Z,0.28
2019-02-28T06:54:47.275Z,0.32
2019-02-28T06:57:20.133Z,0.36
2019-02-28T06:59:51.961Z,0.48
2019-02-28T07:02:23.774Z,0.57
2019-02-28T07:04:55.640Z,0.72
2019-02-28T07:07:27.551Z,0.81
2019-02-28T07:09:59.377Z,0.87
2019-02-28T07:12:33.090Z,1.07
2019-02-28T07:15:06.065Z,1.22
2019-02-28T07:17:37.993Z,1.31
2019-02-28T07:20:13.373Z,1.47
2019-02-28T07:22:45.389Z,1.71
2019-02-28T07:25:17.454Z,1.81
2019-02-28T07:27:49.279Z,1.96
2019-02-28T07:30:21.304Z,2.12
2019-02-28T07:32:53.040Z,2.38
2019-02-28T07:35:25.019Z,2.49
2019-02-28T07:37:56.930Z,2.77
2019-02-28T07:40:28.917Z,2.99
2019-02-28T07:43:00.785Z,3.09
2019-02-28T07:45:33.307Z,3.48
2019-02-28T07:48:06.224Z,3.95
2019-02-28T07:50:38.118Z,4.29
2019-02-28T07:53:11.555Z,4.59
2019-02-28T07:55:43.430Z,4.86
2019-02-28T07:58:15.346Z,5.02
2019-02-28T08:00:48.490Z,5.19
2019-02-28T08:03:20.544Z,5.45
2019-02-28T08:05:52.411Z,5.64
2019-02-28T08:08:26.361Z,5.71
2019-02-28T08:10:58.626Z,5.71
2019-02-28T08:13:30.528Z,5.81
2019-02-28T08:16:02.465Z,5.93
2019-02-28T08:18:34.352Z,6.00
2019-02-28T08:21:08.734Z,6.38
2019-02-28T08:23:40.881Z,6.45
2019-02-28T08:26:15.563Z,6.95
2019-02-28T08:28:46.893Z,6.87
2019-02-28T08:31:18.860Z,7.20
2019-02-28T08:33:50.722Z,7.59
2019-02-28T08:36:22.454Z,7.80
2019-02-28T08:38:54.271Z,8.21
2019-02-28T08:41:26.411Z,8.35
2019-02-28T08:43:58.250Z,8.63
2019-02-28T08:46:30.068Z,8.69
2019-02-28T08:49:06.324Z,8.73
2019-02-28T08:51:35.688Z,8.82
2019-02-28T08:54:07.563Z,8.96
2019-02-28T08:56:39.471Z,9.02
2019-02-28T08:59:12.227Z,9.08
2019-02-28T09:01:45.311Z,9.21
2019-02-28T09:04:17.327Z,9.38
2019-02-28T09:06:49.134Z,9.37
2019-02-28T09:09:21.018Z,9.41
2019-02-28T09:11:57.843Z,9.55
2019-02-28T09:14:26.732Z,9.61
2019-02-28T09:16:59.467Z,9.77
2019-02-28T09:19:32.539Z,9.83
2019-02-28T09:22:05.284Z,9.99
2019-02-28T09:24:37.505Z,10.14
2019-02-28T09:27:09.368Z,10.18
2019-02-28T09:29:41.144Z,10.30
2019-02-28T09:32:13.607Z,10.40
2019-02-28T09:34:47.364Z,10.51
2019-02-28T09:37:19.550Z,10.62
2019-02-28T09:39:54.282Z,10.65
2019-02-28T09:42:25.664Z,10.74
2019-02-28T09:44:57.781Z,10.82
2019-02-28T09:47:29.773Z,10.91
2019-02-28T09:50:01.970Z,10.99
2019-02-28T09:52:33.931Z,11.13
2019-02-28T09:55:06.136Z,11.12
2019-02-28T09:57:38.729Z,11.20
2019-02-28T10:00:17.735Z,11.25
2019-02-28T10:02:49.704Z,11.38
2019-02-28T10:05:21.575Z,11.41
2019-02-28T10:07:54.046Z,11.49
2019-02-28T10:10:26.191Z,11.70
2019-02-28T10:12:58.010Z,11.67
2019-02-28T10:15:29.860Z,11.70
2019-02-28T10:18:04.402Z,11.71
2019-02-28T10:20:35.247Z,11.88
2019-02-28T10:23:07.270Z,11.92
2019-02-28T10:25:43.344Z,11.95
2019-02-28T10:28:12.895Z,12.10
2019-02-28T10:30:47.227Z,12.10
2019-02-28T10:33:18.768Z,12.09
2019-02-28T10:35:50.693Z,12.08
2019-02-28T10:38:22.619Z,12.22
2019-02-28T10:40:54.779Z,12.32
2019-02-28T10:43:26.839Z,12.39
2019-02-28T10:45:58.614Z,12.41
2019-02-28T10:48:30.575Z,12.44
2019-02-28T10:51:12.825Z,12.41
2019-02-28T10:53:36.301Z,12.52
2019-02-28T10:56:09.805Z,12.72
2019-02-28T10:58:41.744Z,12.88
2019-02-28T11:01:14.630Z,13.04
2019-02-28T11:03:46.572Z,12.95
2019-02-28T11:06:18.413Z,13.18
2019-02-28T11:08:50.262Z,13.19
2019-02-28T11:11:22.077Z,13.16
2019-02-28T11:13:53.959Z,13.26
2019-02-28T11:16:26.835Z,13.44
2019-02-28T11:18:58.902Z,13.48
2019-02-28T11:21:30.727Z,13.54
2019-02-28T11:24:02.526Z,13.64
2019-02-28T11:26:34.616Z,13.53
2019-02-28T11:29:06.420Z,13.54
2019-02-28T11:31:38.313Z,13.69
2019-02-28T11:34:14.743Z,13.78
2019-02-28T11:36:44.942Z,13.75
2019-02-28T11:39:20.870Z,13.88
2019-02-28T11:41:53.754Z,14.02
2019-02-28T11:44:25.643Z,14.16
2019-02-28T11:46:57.447Z,14.16
2019-02-28T11:49:29.518Z,14.25
2019-02-28T11:52:01.288Z,14.43
2019-02-28T11:54:33.089Z,14.45
2019-02-28T11:57:06.827Z,14.38
2019-02-28T11:59:38.396Z,14.25
2019-02-28T12:02:11.630Z,14.23
2019-02-28T12:04:43.426Z,14.17
2019-02-28T12:07:16.468Z,14.28
2019-02-28T12:09:51.455Z,14.42
2019-02-28T12:12:22.095Z,14.52
2019-02-28T12:14:54.231Z,14.49
2019-02-28T12:17:28.593Z,14.58
2019-02-28T12:19:59.611Z,14.65
2019-02-28T12:22:31.438Z,14.63
2019-02-28T12:25:04.504Z,14.61
2019-02-28T12:27:36.944Z,14.62
2019-02-28T12:30:13.340Z,14.72
2019-02-28T12:32:45.342Z,14.71
2019-02-28T12:35:17.289Z,14.61
2019-02-28T12:37:49.387Z,14.69
2019-02-28T12:40:23.961Z,14.72
2019-02-28T12:42:55.777Z,14.59
2019-02-28T12:45:31.253Z,14.66
2019-02-28T12:48:04.386Z,14.86
2019-02-28T12:50:36.262Z,15.13
2019-02-28T12:53:08.170Z,15.21
2019-02-28T12:55:41.495Z,15.20
2019-02-28T12:58:14.293Z,15.25
2019-02-28T13:00:46.565Z,15.28
2019-02-28T13:03:20.289Z,15.09
2019-02-28T13:05:51.808Z,14.98
2019-02-28T13:08:23.662Z,15.01
2019-02-28T13:10:55.467Z,15.12
2019-02-28T13:13:28.951Z,15.32
2019-02-28T13:16:00.847Z,15.34
2019-02-28T13:18:32.650Z,15.39
2019-02-28T13:21:06.223Z,15.25
2019-02-28T13:23:38.422Z,15.49
2019-02-28T13:26:11.699Z,15.62
2019-02-28T13:28:43.425Z,15.65
2019-02-28T13:31:15.225Z,15.42
2019-02-28T13:33:48.616Z,15.47
2019-02-28T13:36:21.615Z,15.69
2019-02-28T13:38:55.899Z,15.82
2019-02-28T13:41:27.982Z,15.87
2019-02-28T13:44:00.315Z,15.83
2019-02-28T13:46:33.883Z,15.74
2019-02-28T13:49:08.596Z,16.02
2019-02-28T13:51:41.995Z,16.11
2019-02-28T13:54:13.517Z,15.87
2019-02-28T13:56:45.572Z,15.99
2019-02-28T13:59:17.390Z,15.96
2019-02-28T14:01:52.089Z,16.31
2019-02-28T14:04:26.044Z,16.24
2019-02-28T14:06:56.789Z,16.25
2019-02-28T14:09:28.674Z,16.19
2019-02-28T14:12:00.543Z,16.29
2019-02-28T14:14:32.531Z,16.67
2019-02-28T14:17:04.309Z,16.54
2019-02-28T14:19:36.130Z,16.58
2019-02-28T14:22:08.548Z,16.69
2019-02-28T14:24:41.518Z,16.22
2019-02-28T14:27:13.240Z,15.97
2019-02-28T14:29:48.418Z,16.48
2019-02-28T14:32:18.540Z,16.59
2019-02-28T14:34:50.529Z,16.65
2019-02-28T14:37:22.321Z,16.51
2019-02-28T14:39:55.361Z,16.47
2019-02-28T14:42:27.159Z,16.71
2019-02-28T14:44:58.899Z,16.77
2019-02-28T14:47:30.624Z,16.54
2019-02-28T14:50:02.455Z,16.36
2019-02-28T14:52:35.761Z,16.46
2019-02-28T14:55:10.636Z,16.28
2019-02-28T14:57:42.511Z,16.30
2019-02-28T15:00:17.525Z,16.38
2019-02-28T15:02:50.765Z,16.27
2019-02-28T15:05:22.780Z,16.13
2019-02-28T15:07:54.589Z,16.26
2019-02-28T15:10:26.491Z,16.43
2019-02-28T15:12:59.642Z,16.26
2019-02-28T15:15:31.719Z,16.31
2019-02-28T15:18:03.536Z,16.28
2019-02-28T15:20:35.346Z,16.08
2019-02-28T15:23:07.160Z,16.14
2019-02-28T15:25:39.051Z,16.19
2019-02-28T15:28:13.875Z,16.19
2019-02-28T15:30:45.413Z,16.29
2019-02-28T15:33:17.488Z,16.31
2019-02-28T15:35:49.903Z,16.20
2019-02-28T15:38:22.129Z,16.41
2019-02-28T15:40:55.636Z,16.54
2019-02-28T15:43:27.464Z,16.40
2019-02-28T15:45:59.200Z,16.58
2019-02-28T15:48:31.427Z,16.66
2019-02-28T15:51:04.794Z,16.26
2019-02-28T15:53:36.617Z,16.26
2019-02-28T15:56:13.222Z,16.08
2019-02-28T15:58:42.367Z,16.11
2019-02-28T16:01:14.143Z,16.18
2019-02-28T16:03:48.425Z,15.99
2019-02-28T16:06:20.491Z,16.26
2019-02-28T16:08:52.661Z,15.97
2019-02-28T16:11:24.485Z,15.75
2019-02-28T16:13:57.501Z,15.44
2019-02-28T16:16:29.446Z,15.23
2019-02-28T16:19:01.190Z,15.23
2019-02-28T16:21:33.009Z,15.17
2019-02-28T16:24:05.197Z,15.04
2019-02-28T16:26:37.806Z,14.93
2019-02-28T16:29:09.546Z,14.94
2019-02-28T16:31:41.716Z,14.83
2019-02-28T16:34:14.500Z,14.75
2019-02-28T16:36:46.305Z,14.67
2019-02-28T16:39:18.310Z,14.51
2019-02-28T16:41:50.058Z,14.51
2019-02-28T16:44:21.813Z,14.40
2019-02-28T16:46:53.884Z,14.30
2019-02-28T16:49:25.639Z,14.15
2019-02-28T16:51:57.646Z,14.09
2019-02-28T16:54:29.669Z,13.98
2019-02-28T16:57:01.757Z,13.94
2019-02-28T16:59:33.504Z,13.69
2019-02-28T17:02:05.385Z,13.84
2019-02-28T17:04:37.212Z,13.70
2019-02-28T17:07:09.548Z,13.54
2019-02-28T17:09:43.660Z,13.54
2019-02-28T17:12:33.096Z,13.43
2019-02-28T17:15:10.647Z,13.35
2019-02-28T17:18:07.770Z,13.29
2019-02-28T17:20:40.759Z,13.33
2019-02-28T17:23:13.304Z,13.26
2019-02-28T17:25:45.315Z,13.17
2019-02-28T17:28:29.964Z,13.07
2019-02-28T17:31:23.756Z,12.95
2019-02-28T17:33:55.837Z,13.11
2019-02-28T17:36:27.736Z,12.82
2019-02-28T17:38:59.782Z,12.99
2019-02-28T17:41:33.957Z,12.70
2019-02-28T17:45:10.119Z,12.81
2019-02-28T17:48:36.022Z,12.83
2019-02-28T17:51:25.497Z,12.55
2019-02-28T17:54:31.703Z,12.65
2019-02-28T17:58:01.279Z,12.41
2019-02-28T18:01:39.027Z,12.45
2019-02-28T18:04:49.037Z,12.43
2019-02-28T18:07:57.805Z,12.17
2019-02-28T18:11:08.473Z,12.29
2019-02-28T18:13:59.928Z,12.19
2019-02-28T18:17:38.791Z,12.10
2019-02-28T18:21:00.719Z,12.05
2019-02-28T18:24:14.820Z,11.96
2019-02-28T18:27:39.386Z,11.86
2019-02-28T18:31:09.068Z,11.72
2019-02-28T18:34:06.027Z,11.64
2019-02-28T18:36:40.223Z,11.49
2019-02-28T18:39:12.453Z,11.43
2019-02-28T18:41:44.609Z,11.09
2019-02-28T18:44:16.507Z,11.19
2019-02-28T18:46:48.999Z,11.14
2019-02-28T18:49:21.010Z,11.11
2019-02-28T18:51:52.755Z,11.12
2019-02-28T18:54:24.504Z,11.06
2019-02-28T18:56:56.256Z,10.71
2019-02-28T18:59:27.990Z,10.97
2019-02-28T19:01:59.743Z,11.01
2019-02-28T19:04:31.874Z,10.93
2019-02-28T19:07:03.699Z,10.92
2019-02-28T19:09:35.494Z,10.95
2019-02-28T19:12:07.309Z,10.80
2019-02-28T19:14:39.260Z,10.85
2019-02-28T19:17:11.447Z,10.83
2019-02-28T19:19:43.247Z,10.76
2019-02-28T19:22:15.103Z,10.70
2019-02-28T19:24:47.067Z,10.57
2019-02-28T19:27:18.990Z,10.57
2019-02-28T19:29:50.803Z,10.70
2019-02-28T19:32:22.728Z,10.57
2019-02-28T19:34:54.720Z,10.66
2019-02-28T19:37:27.518Z,10.62
2019-02-28T19:39:59.456Z,10.59
2019-02-28T19:42:31.384Z,10.59
2019-02-28T19:45:03.560Z,10.45
2019-02-28T19:47:35.729Z,10.54
2019-02-28T19:50:09.437Z,10.37
2019-02-28T19:52:41.302Z,10.30
2019-02-28T19:55:13.984Z,10.19
2019-02-28T19:57:46.042Z,10.16
2019-02-28T20:00:18.192Z,10.06
2019-02-28T20:02:50.366Z,10.11
2019-02-28T20:05:22.431Z,10.02
2019-02-28T20:07:54.948Z,9.98
2019-02-28T20:10:26.910Z,10.00
2019-02-28T20:12:58.888Z,9.97
2019-02-28T20:15:32.995Z,9.93
2019-02-28T20:18:05.653Z,9.91
2019-02-28T20:20:37.559Z,9.76
2019-02-28T20:23:09.535Z,9.79
2019-02-28T20:25:41.849Z,9.80
2019-02-28T20:28:13.831Z,9.77
2019-02-28T20:30:47.566Z,9.71
2019-02-28T20:33:19.885Z,9.72
2019-02-28T20:35:53.085Z,9.58
2019-02-28T20:38:24.954Z,9.60
2019-02-28T20:40:56.891Z,9.57
2019-02-28T20:43:29.065Z,9.56
2019-02-28T20:46:01.098Z,9.40
2019-02-28T20:48:32.875Z,9.51
2019-02-28T20:51:04.797Z,9.44
2019-02-28T20:53:36.609Z,9.48
2019-02-28T20:56:08.390Z,9.52
2019-02-28T20:58:40.181Z,9.61
2019-02-28T21:01:12.125Z,9.56
2019-02-28T21:03:44.021Z,9.42
2019-02-28T21:06:15.862Z,9.45
2019-02-28T21:08:47.733Z,9.15
2019-02-28T21:11:20.587Z,9.31
2019-02-28T21:13:52.609Z,9.17
2019-02-28T21:16:24.582Z,9.04
2019-02-28T21:18:58.212Z,8.88
2019-02-28T21:21:30.012Z,8.91
2019-02-28T21:24:01.842Z,8.89
2019-02-28T21:26:34.012Z,9.07
2019-02-28T21:29:05.895Z,9.05
2019-02-28T21:31:37.751Z,9.06
2019-02-28T21:34:09.863Z,8.93
2019-02-28T21:36:42.212Z,8.90
2019-02-28T21:39:14.288Z,8.92
2019-02-28T21:41:47.832Z,8.78
2019-02-28T21:44:20.071Z,8.94
2019-02-28T21:46:52.045Z,8.78
2019-02-28T21:49:23.951Z,8.88
2019-02-28T21:51:55.776Z,8.66
2019-02-28T21:54:27.719Z,8.70
2019-02-28T21:56:59.464Z,8.73
2019-02-28T21:59:31.256Z,8.78
2019-02-28T22:02:03.080Z,8.74
2019-02-28T22:04:34.927Z,8.61
2019-02-28T22:07:06.966Z,8.82
2019-02-28T22:09:38.748Z,8.80
2019-02-28T22:12:10.518Z,8.79
2019-02-28T22:14:42.285Z,8.77
2019-02-28T22:17:14.052Z,8.61
2019-02-28T22:19:45.936Z,8.66
2019-02-28T22:22:17.827Z,8.70
2019-02-28T22:24:49.921Z,8.69
2019-02-28T22:27:21.736Z,8.60
2019-02-28T22:29:53.483Z,8.56
2019-02-28T22:32:30.588Z,8.36
2019-02-28T22:35:19.752Z,8.64
2019-02-28T22:37:51.563Z,8.60
2019-02-28T22:40:23.428Z,8.43
2019-02-28T22:42:55.242Z,8.47
2019-02-28T22:45:26.975Z,8.61
2019-02-28T22:47:58.691Z,8.57
2019-02-28T22:50:30.424Z,8.45
2019-02-28T22:53:02.427Z,8.54
2019-02-28T22:55:34.282Z,8.51
2019-02-28T22:58:09.824Z,8.53
2019-02-28T23:01:04.775Z,8.36
2019-02-28T23:03:38.505Z,8.32
2019-02-28T23:06:10.478Z,8.40
2019-02-28T23:08:42.581Z,8.41
2019-02-28T23:11:14.850Z,8.25
2019-02-28T23:13:46.649Z,8.41
2019-02-28T23:16:18.456Z,8.40
2019-02-28T23:18:50.184Z,8.38
2019-02-28T23:21:22.082Z,8.37
2019-02-28T23:23:53.801Z,8.15
2019-02-28T23:26:28.624Z,8.33
2019-02-28T23:29:16.133Z,8.42
2019-02-28T23:32:55.649Z,8.42
2019-02-28T23:35:32.647Z,8.30
2019-02-28T23:38:04.516Z,8.24
2019-02-28T23:40:36.397Z,8.36
2019-02-28T23:43:08.260Z,8.13
2019-02-28T23:45:40.071Z,8.24
2019-02-28T23:48:12.400Z,8.45
2019-02-28T23:50:44.216Z,8.40
2019-02-28T23:53:16.013Z,8.10
2019-02-28T23:55:47.746Z,8.33
2019-02-28T23:58:20.436Z,8.34
